Cherry, Illinois
Current Conditions -  °F | °C
As of 3:35 PM on Wednesday 26 Nov 2014 (Local Time) from KVYS Reporting Station
Overcast Overcast  
Wind Chill: 22°   Ceiling: 1600
Heat Index: 28°   Visibility: 10mi
Dew Point: 23°   Wind: 6mph
Humidity: 80%   Direction: 110°ESE
Pressure: 30.11"   Gusts: NA
Location:  41.43°N, 89.21°W
Report Text: KVYS 262135Z AUTO 11005KT 10SM OVC016 M02/M05 A3011 RMK AO2 T10211051
Loading
Personal Weather Stations






























Interactive Weather Map New forecast layout! Learn more

10-Day Weather Forecast

Advertisements
Track Severe Weather on mobile